Elbow Lake, Minnesota
Current Conditions -  °F | °C
As of 7:14 PM on Saturday 22 Nov 2014 (Local Time) from KFFM Reporting Station
Haze Haze  
Wind Chill: 24°   Ceiling: 400
Heat Index: 34°   Visibility: 2mi
Dew Point: 32°   Wind: 16mph
Humidity: 93%   Direction: 150°SSE
Pressure: 29.47"   Gusts: NA
Location:  45.99°N, 95.98°W
Report Text: KFFM 230114Z AUTO 15014KT 2SM BR OVC004 01/00 A2947 RMK AO2
Loading
Personal Weather Stations






























Interactive Weather Map New forecast layout! Learn more

10-Day Weather Forecast

Advertisements
Track Severe Weather on mobile